createdAt,value
2018-11-12T00:02:06.818Z,79.10
2018-11-12T00:07:10.439Z,78.70
2018-11-12T00:12:13.996Z,78.60
2018-11-12T00:17:17.571Z,78.30
2018-11-12T00:22:21.617Z,78.70
2018-11-12T00:27:25.325Z,80.10
2018-11-12T00:32:29.012Z,81.90
2018-11-12T00:37:32.907Z,82.30
2018-11-12T00:42:36.612Z,81.80
2018-11-12T00:47:40.447Z,81.40
2018-11-12T00:52:44.142Z,81.50
2018-11-12T00:57:47.717Z,81.30
2018-11-12T01:02:52.150Z,81.30
2018-11-12T01:07:55.763Z,81.00
2018-11-12T01:12:59.804Z,80.70
2018-11-12T01:18:03.736Z,81.40
2018-11-12T01:23:08.181Z,80.40
2018-11-12T01:28:11.769Z,80.30
2018-11-12T01:33:15.558Z,80.00
2018-11-12T01:38:19.135Z,79.80
2018-11-12T01:43:22.685Z,80.20
2018-11-12T01:48:26.348Z,80.40
2018-11-12T01:53:29.963Z,80.50
2018-11-12T01:58:33.922Z,80.40
2018-11-12T02:03:37.568Z,79.60
2018-11-12T02:08:41.237Z,79.70
2018-11-12T02:13:44.759Z,79.80
2018-11-12T02:18:48.325Z,80.00
2018-11-12T02:23:51.887Z,80.00
2018-11-12T02:28:55.492Z,80.20
2018-11-12T02:33:59.217Z,79.80
2018-11-12T02:39:02.884Z,80.00
2018-11-12T02:44:06.980Z,79.20
2018-11-12T02:49:10.596Z,79.30
2018-11-12T02:54:14.472Z,79.00
2018-11-12T02:59:18.102Z,79.00
2018-11-12T03:04:22.387Z,78.70
2018-11-12T03:09:25.988Z,79.40
2018-11-12T03:14:29.560Z,79.40
2018-11-12T03:19:33.119Z,79.70
2018-11-12T03:24:36.689Z,79.60
2018-11-12T03:29:40.650Z,80.90
2018-11-12T03:34:44.211Z,81.40
2018-11-12T03:39:47.852Z,81.40
2018-11-12T03:44:51.387Z,80.60
2018-11-12T03:49:55.057Z,82.60
2018-11-12T03:54:58.725Z,82.30
2018-11-12T04:00:02.393Z,82.70
2018-11-12T04:05:06.108Z,83.20
2018-11-12T04:10:12.946Z,82.40
2018-11-12T04:15:17.988Z,82.30
2018-11-12T04:20:22.804Z,82.30
2018-11-12T04:25:26.533Z,82.80
2018-11-12T04:30:39.186Z,83.10
2018-11-12T04:35:42.839Z,82.50
2018-11-12T04:40:46.471Z,81.90
2018-11-12T04:45:50.569Z,81.80
2018-11-12T04:50:54.167Z,82.50
2018-11-12T04:55:57.866Z,82.70
2018-11-12T05:01:01.426Z,84.20
2018-11-12T05:06:05.243Z,83.60
2018-11-12T05:11:08.928Z,83.10
2018-11-12T05:16:12.864Z,82.10
2018-11-12T05:21:16.459Z,81.40
2018-11-12T05:26:20.070Z,80.50
2018-11-12T05:31:23.691Z,80.50
2018-11-12T05:36:27.312Z,80.60
2018-11-12T05:41:31.436Z,80.50
2018-11-12T05:46:35.428Z,80.60
2018-11-12T05:51:39.272Z,80.60
2018-11-12T05:56:42.827Z,80.60
2018-11-12T06:01:46.412Z,81.20
2018-11-12T06:06:50.112Z,80.60
2018-11-12T06:11:53.716Z,80.00
2018-11-12T06:16:57.355Z,79.40
2018-11-12T06:22:00.976Z,78.80
2018-11-12T06:27:05.174Z,77.90
2018-11-12T06:32:08.767Z,78.80
2018-11-12T06:37:13.056Z,79.10
2018-11-12T06:42:16.969Z,79.30
2018-11-12T06:47:20.774Z,79.60
2018-11-12T06:52:24.417Z,80.30
2018-11-12T06:57:30.948Z,80.20
2018-11-12T07:02:37.998Z,79.90
2018-11-12T07:07:44.188Z,80.10
2018-11-12T07:12:48.440Z,79.90
2018-11-12T07:17:52.034Z,79.90
2018-11-12T07:22:55.637Z,79.80
2018-11-12T07:27:59.537Z,80.50
2018-11-12T07:33:03.126Z,80.50
2018-11-12T07:38:06.751Z,80.50
2018-11-12T07:43:10.318Z,80.20
2018-11-12T07:48:13.985Z,79.90
2018-11-12T07:53:17.882Z,79.60
2018-11-12T07:58:21.468Z,79.50
2018-11-12T08:03:25.053Z,80.00
2018-11-12T08:08:28.634Z,81.80
2018-11-12T08:13:32.257Z,83.60
2018-11-12T08:18:37.085Z,85.70
2018-11-12T08:23:40.764Z,84.00
2018-11-12T08:28:44.326Z,87.90
2018-11-12T08:33:48.079Z,86.80
2018-11-12T08:38:51.904Z,84.10
2018-11-12T08:43:55.554Z,87.70
2018-11-12T08:48:59.281Z,83.70
2018-11-12T08:54:02.775Z,86.90
2018-11-12T08:59:08.198Z,89.80
2018-11-12T09:04:11.994Z,89.80
2018-11-12T09:09:15.516Z,88.60
2018-11-12T09:14:19.375Z,90.00
2018-11-12T09:19:23.118Z,90.60
2018-11-12T09:24:26.740Z,91.30
2018-11-12T09:29:30.416Z,90.50
2018-11-12T09:34:34.195Z,87.80
2018-11-12T09:39:38.064Z,87.30
2018-11-12T09:44:41.872Z,89.30
2018-11-12T09:49:45.484Z,85.50
2018-11-12T09:54:49.181Z,83.50
2018-11-12T09:59:52.798Z,80.70
2018-11-12T10:04:57.750Z,79.70
2018-11-12T10:10:02.907Z,81.70
2018-11-12T10:15:06.541Z,77.50
2018-11-12T10:20:10.739Z,78.20
2018-11-12T10:25:14.247Z,72.20
2018-11-12T10:30:17.840Z,58.90
2018-11-12T10:35:21.428Z,59.70
2018-11-12T10:40:25.630Z,54.90
2018-11-12T10:45:29.316Z,57.60
2018-11-12T10:50:33.055Z,58.70
2018-11-12T10:55:36.847Z,58.90
2018-11-12T11:00:45.708Z,61.00
2018-11-12T11:05:51.316Z,65.20
2018-11-12T11:10:55.006Z,65.00
2018-11-12T11:15:58.658Z,65.50
2018-11-12T11:21:02.219Z,64.00
2018-11-12T11:26:05.864Z,66.00
2018-11-12T11:31:09.424Z,63.30
2018-11-12T11:36:13.256Z,60.90
2018-11-12T11:41:17.196Z,55.90
2018-11-12T11:46:20.828Z,54.30
2018-11-12T11:51:24.400Z,54.60
2018-11-12T11:56:33.315Z,55.00
2018-11-12T12:01:37.810Z,53.00
2018-11-12T12:06:41.377Z,53.70
2018-11-12T12:11:44.998Z,53.60
2018-11-12T12:16:48.564Z,53.70
2018-11-12T12:21:52.157Z,54.30
2018-11-12T12:26:55.758Z,53.70
2018-11-12T12:31:59.336Z,51.30
2018-11-12T12:37:02.988Z,50.10
2018-11-12T12:42:06.563Z,51.40
2018-11-12T12:47:10.120Z,48.80
2018-11-12T12:52:13.768Z,48.90
2018-11-12T12:57:17.643Z,49.60
2018-11-12T13:02:21.367Z,48.80
2018-11-12T13:07:24.929Z,51.30
2018-11-12T13:12:28.830Z,49.60
2018-11-12T13:17:32.379Z,49.80
2018-11-12T13:27:41.733Z,46.40
2018-11-12T13:32:46.332Z,46.90
2018-11-12T13:37:50.850Z,48.20
2018-11-12T13:42:57.804Z,48.90
2018-11-12T13:48:01.374Z,51.30
2018-11-12T13:53:05.092Z,51.10
2018-11-12T13:58:08.876Z,52.00
2018-11-12T14:03:12.436Z,49.70
2018-11-12T14:08:15.974Z,51.10
2018-11-12T14:13:19.558Z,50.30
2018-11-12T14:18:23.200Z,51.60
2018-11-12T14:23:26.765Z,52.40
2018-11-12T14:28:31.413Z,52.40
2018-11-12T14:33:34.850Z,50.70
2018-11-12T14:38:38.603Z,48.40
2018-11-12T14:43:42.231Z,46.30
2018-11-12T14:48:46.223Z,46.90
2018-11-12T14:53:49.792Z,48.00
2018-11-12T14:58:53.451Z,46.40
2018-11-12T15:03:57.003Z,45.60
2018-11-12T15:09:01.213Z,45.80
2018-11-12T15:14:04.839Z,46.10
2018-11-12T15:19:09.274Z,45.90
2018-11-12T15:24:12.838Z,46.40
2018-11-12T15:29:16.635Z,47.50
2018-11-12T15:34:20.213Z,49.40
2018-11-12T15:39:23.915Z,50.50
2018-11-12T15:44:27.523Z,52.50
2018-11-12T15:49:31.100Z,54.10
2018-11-12T15:54:34.645Z,55.30
2018-11-12T15:59:38.436Z,56.30
2018-11-12T16:04:42.017Z,56.60
2018-11-12T16:09:45.634Z,57.10
2018-11-12T16:14:49.336Z,57.50
2018-11-12T16:19:53.264Z,57.00
2018-11-12T16:24:56.821Z,57.00
2018-11-12T16:30:00.511Z,57.10
2018-11-12T16:35:04.950Z,58.00
2018-11-12T16:40:09.075Z,58.90
2018-11-12T16:45:13.514Z,59.20
2018-11-12T16:50:18.087Z,60.00
2018-11-12T16:55:22.758Z,60.70
2018-11-12T17:00:26.514Z,62.00
2018-11-12T17:05:30.076Z,60.80
2018-11-12T17:10:33.689Z,61.50
2018-11-12T17:15:37.235Z,62.40
2018-11-12T17:20:40.863Z,61.80
2018-11-12T17:25:45.092Z,63.00
2018-11-12T17:30:48.781Z,63.00
2018-11-12T17:35:52.409Z,64.00
2018-11-12T17:40:56.009Z,63.70
2018-11-12T17:45:59.658Z,63.70
2018-11-12T17:51:03.537Z,65.20
2018-11-12T17:56:07.212Z,66.00
2018-11-12T18:01:11.132Z,65.00
2018-11-12T18:06:15.099Z,64.40
2018-11-12T18:11:19.260Z,64.80
2018-11-12T18:16:22.883Z,65.50
2018-11-12T18:21:26.880Z,66.00
2018-11-12T18:26:30.777Z,65.50
2018-11-12T18:31:34.715Z,66.70
2018-11-12T18:36:38.132Z,66.60
2018-11-12T18:41:41.747Z,66.10
2018-11-12T18:46:45.370Z,65.60
2018-11-12T18:51:48.989Z,66.40
2018-11-12T18:56:52.984Z,66.90
2018-11-12T19:01:56.882Z,67.30
2018-11-12T19:07:01.020Z,66.80
2018-11-12T19:12:06.257Z,66.90
2018-11-12T19:17:10.021Z,66.70
2018-11-12T19:22:13.672Z,67.00
2018-11-12T19:27:17.329Z,66.90
2018-11-12T19:32:20.954Z,67.40
2018-11-12T19:37:24.848Z,67.50
2018-11-12T19:42:28.447Z,67.90
2018-11-12T19:47:32.119Z,67.00
2018-11-12T19:52:36.919Z,66.80
2018-11-12T19:57:41.074Z,67.70
2018-11-12T20:02:45.851Z,67.40
2018-11-12T20:07:49.469Z,67.50
2018-11-12T20:12:53.389Z,68.90
2018-11-12T20:17:58.442Z,69.40
2018-11-12T20:23:02.227Z,69.50
2018-11-12T20:28:05.995Z,68.60
2018-11-12T20:33:09.556Z,68.30
2018-11-12T20:38:13.775Z,69.10
2018-11-12T20:43:17.391Z,68.50
2018-11-12T20:48:21.047Z,69.00
2018-11-12T20:53:24.642Z,68.50
2018-11-12T20:58:29.188Z,67.20
2018-11-12T21:03:33.223Z,67.90
2018-11-12T21:08:38.123Z,68.50
2018-11-12T21:13:41.936Z,68.70
2018-11-12T21:18:46.809Z,68.60
2018-11-12T21:23:51.281Z,68.90
2018-11-12T21:28:55.511Z,69.60
2018-11-12T21:33:59.144Z,73.20
2018-11-12T21:39:02.813Z,75.20
2018-11-12T21:44:07.106Z,77.40
2018-11-12T21:49:11.050Z,77.20
2018-11-12T21:54:15.556Z,78.10
2018-11-12T21:59:19.468Z,75.60
2018-11-12T22:04:23.398Z,77.30
2018-11-12T22:09:27.575Z,75.40
2018-11-12T22:14:31.252Z,76.10
2018-11-12T22:19:34.973Z,77.80
2018-11-12T22:24:43.838Z,75.10
2018-11-12T22:29:47.584Z,75.80
2018-11-12T22:34:53.050Z,77.20
2018-11-12T22:39:56.736Z,78.80
2018-11-12T22:45:00.324Z,79.70
2018-11-12T22:50:04.224Z,81.20
2018-11-12T22:55:08.598Z,82.10
2018-11-12T23:00:28.053Z,81.70
2018-11-12T23:05:31.600Z,81.30
2018-11-12T23:10:35.287Z,81.00
2018-11-12T23:15:38.848Z,80.50
2018-11-12T23:20:47.810Z,80.20
2018-11-12T23:25:51.920Z,80.30
2018-11-12T23:30:55.525Z,80.60
2018-11-12T23:35:59.071Z,80.60
2018-11-12T23:41:02.655Z,80.40
2018-11-12T23:46:06.424Z,79.80
2018-11-12T23:51:10.861Z,80.50
2018-11-12T23:56:14.451Z,80.90
